createdAt,value
2019-05-06T00:00:05.301Z,52.21
2019-05-06T00:01:05.456Z,52.21
2019-05-06T00:02:05.623Z,65.26
2019-05-06T00:03:06.563Z,55.27
2019-05-06T00:04:06.553Z,74.93
2019-05-06T00:05:07.151Z,58.33
2019-05-06T00:06:06.402Z,57.20
2019-05-06T00:07:07.059Z,52.37
2019-05-06T00:08:06.672Z,51.40
2019-05-06T00:09:06.805Z,61.23
2019-05-06T00:10:07.049Z,83.14
2019-05-06T00:11:07.563Z,60.59
2019-05-06T00:12:08.053Z,52.85
2019-05-06T00:13:07.568Z,53.50
2019-05-06T00:14:07.735Z,61.23
2019-05-06T00:15:07.911Z,57.20
2019-05-06T00:16:09.053Z,51.40
2019-05-06T00:17:09.049Z,52.53
2019-05-06T00:18:08.438Z,57.85
2019-05-06T00:19:08.606Z,53.98
2019-05-06T00:20:09.551Z,53.98
2019-05-06T00:21:09.557Z,56.40
2019-05-06T00:22:10.054Z,66.06
2019-05-06T00:23:09.323Z,57.36
2019-05-06T00:24:09.520Z,61.07
2019-05-06T00:25:09.687Z,52.85
2019-05-06T00:26:09.842Z,58.65
2019-05-06T00:27:10.005Z,54.46
2019-05-06T00:28:10.195Z,68.48
2019-05-06T00:29:10.397Z,58.01
2019-05-06T00:30:10.586Z,59.62
2019-05-06T00:31:14.033Z,72.03
2019-05-06T00:32:14.946Z,58.17
2019-05-06T00:33:11.035Z,57.69
2019-05-06T00:34:11.240Z,52.21
2019-05-06T00:35:11.434Z,52.21
2019-05-06T00:36:11.604Z,63.81
2019-05-06T00:37:11.789Z,62.68
2019-05-06T00:38:13.888Z,68.00
2019-05-06T00:39:12.252Z,55.27
2019-05-06T00:40:14.057Z,60.59
2019-05-06T00:41:14.367Z,52.37
2019-05-06T00:42:13.928Z,52.05
2019-05-06T00:43:14.084Z,51.56
2019-05-06T00:44:14.379Z,56.88
2019-05-06T00:45:14.268Z,56.56
2019-05-06T00:46:14.054Z,53.17
2019-05-06T00:47:13.641Z,68.80
2019-05-06T00:48:14.829Z,53.50
2019-05-06T00:49:14.555Z,58.17
2019-05-06T00:50:14.327Z,60.75
2019-05-06T00:51:16.055Z,71.38
2019-05-06T00:52:15.056Z,51.56
2019-05-06T00:53:14.725Z,60.26
2019-05-06T00:54:14.895Z,62.52
2019-05-06T00:55:15.081Z,52.05
2019-05-06T00:56:15.260Z,52.37
2019-05-06T00:57:16.060Z,64.94
2019-05-06T00:58:15.578Z,62.36
2019-05-06T00:59:16.553Z,61.23
2019-05-06T01:00:16.064Z,54.95
2019-05-06T01:01:25.915Z,52.21
2019-05-06T01:02:18.344Z,52.37
2019-05-06T01:03:16.463Z,80.57
2019-05-06T01:04:16.686Z,60.59
2019-05-06T01:05:16.888Z,52.05
2019-05-06T01:06:17.071Z,52.05
2019-05-06T01:07:17.272Z,59.78
2019-05-06T01:08:17.436Z,57.69
2019-05-06T01:09:17.650Z,66.71
2019-05-06T01:10:17.846Z,59.78
2019-05-06T01:11:18.005Z,75.57
2019-05-06T01:12:18.210Z,52.21
2019-05-06T01:13:18.376Z,52.21
2019-05-06T01:14:19.068Z,51.24
2019-05-06T01:15:18.722Z,52.69
2019-05-06T01:16:19.563Z,51.88
2019-05-06T01:17:19.080Z,51.24
2019-05-06T01:18:19.579Z,51.72
2019-05-06T01:19:19.477Z,54.79
2019-05-06T01:20:19.633Z,58.17
2019-05-06T01:21:19.773Z,52.53
2019-05-06T01:22:20.555Z,52.37
2019-05-06T01:23:20.077Z,60.26
2019-05-06T01:24:20.222Z,63.33
2019-05-06T01:25:20.377Z,64.29
2019-05-06T01:26:20.520Z,51.56
2019-05-06T01:27:20.690Z,52.69
2019-05-06T01:28:20.850Z,57.04
2019-05-06T01:29:21.026Z,52.53
2019-05-06T01:30:24.238Z,51.40
2019-05-06T01:31:21.292Z,51.88
2019-05-06T01:32:23.525Z,70.90
2019-05-06T01:33:21.684Z,64.78
2019-05-06T01:34:21.861Z,78.63
2019-05-06T01:35:22.017Z,54.46
2019-05-06T01:36:22.152Z,75.73
2019-05-06T01:37:24.363Z,80.24
2019-05-06T01:38:24.274Z,57.52
2019-05-06T01:39:24.424Z,62.68
2019-05-06T01:40:23.894Z,59.30
2019-05-06T01:41:24.570Z,63.65
2019-05-06T01:42:24.578Z,65.58
2019-05-06T01:43:24.161Z,52.69
2019-05-06T01:44:24.545Z,63.49
2019-05-06T01:45:23.822Z,80.08
2019-05-06T01:46:24.955Z,71.06
2019-05-06T01:47:24.206Z,51.72
2019-05-06T01:48:24.558Z,59.30
2019-05-06T01:49:26.071Z,53.50
2019-05-06T01:50:25.065Z,81.53
2019-05-06T01:51:24.954Z,55.27
2019-05-06T01:52:25.166Z,62.20
2019-05-06T01:53:26.059Z,54.14
2019-05-06T01:54:25.540Z,76.54
2019-05-06T01:55:25.682Z,56.24
2019-05-06T01:56:25.828Z,57.52
2019-05-06T01:57:25.991Z,67.51
2019-05-06T01:58:26.133Z,51.72
2019-05-06T01:59:27.058Z,51.56
2019-05-06T02:00:26.407Z,52.21
2019-05-06T02:01:26.553Z,50.76
2019-05-06T02:02:26.712Z,76.54
2019-05-06T02:03:26.870Z,52.69
2019-05-06T02:04:27.020Z,61.23
2019-05-06T02:05:27.161Z,59.78
2019-05-06T02:06:27.301Z,51.56
2019-05-06T02:07:27.575Z,52.37
2019-05-06T02:08:27.620Z,67.03
2019-05-06T02:09:27.774Z,70.25
2019-05-06T02:10:28.552Z,61.23
2019-05-06T02:11:28.183Z,58.33
2019-05-06T02:12:28.369Z,52.53
2019-05-06T02:13:28.543Z,52.21
2019-05-06T02:14:28.730Z,61.07
2019-05-06T02:15:28.889Z,61.23
2019-05-06T02:16:29.568Z,56.40
2019-05-06T02:17:29.225Z,75.73
2019-05-06T02:18:29.369Z,55.27
2019-05-06T02:19:29.531Z,81.86
2019-05-06T02:20:29.667Z,53.66
2019-05-06T02:21:29.788Z,60.75
2019-05-06T02:22:29.911Z,52.37
2019-05-06T02:23:30.037Z,59.62
2019-05-06T02:24:30.189Z,59.94
2019-05-06T02:25:30.304Z,78.79
2019-05-06T02:26:30.446Z,61.87
2019-05-06T02:27:30.627Z,83.31
2019-05-06T02:28:30.750Z,57.20
2019-05-06T02:29:30.919Z,80.08
2019-05-06T02:30:31.058Z,59.14
2019-05-06T02:31:31.211Z,79.76
2019-05-06T02:32:31.944Z,58.17
2019-05-06T02:33:31.566Z,72.99
2019-05-06T02:34:31.731Z,58.01
2019-05-06T02:35:34.754Z,81.53
2019-05-06T02:36:34.454Z,80.57
2019-05-06T02:37:34.959Z,64.29
2019-05-06T02:38:39.740Z,73.15
2019-05-06T02:39:34.714Z,77.50
2019-05-06T02:40:33.823Z,79.12
2019-05-06T02:41:33.838Z,78.96
2019-05-06T02:42:35.067Z,77.50
2019-05-06T02:43:34.726Z,59.78
2019-05-06T02:44:34.508Z,83.14
2019-05-06T02:45:33.823Z,77.83
2019-05-06T02:46:34.029Z,81.53
2019-05-06T02:47:34.961Z,75.41
2019-05-06T02:48:35.070Z,79.44
2019-05-06T02:49:34.463Z,63.00
2019-05-06T02:50:34.604Z,61.23
2019-05-06T02:51:34.778Z,62.36
2019-05-06T02:52:34.941Z,64.29
2019-05-06T02:53:35.084Z,63.81
2019-05-06T02:54:36.078Z,65.58
2019-05-06T02:55:36.267Z,77.18
2019-05-06T02:56:36.648Z,67.03
2019-05-06T02:57:36.763Z,64.13
2019-05-06T02:58:35.913Z,77.83
2019-05-06T02:59:37.074Z,67.84
2019-05-06T03:00:36.203Z,77.18
2019-05-06T03:01:36.359Z,73.80
2019-05-06T03:02:43.263Z,81.05
2019-05-06T03:03:39.559Z,67.68
2019-05-06T03:04:36.909Z,66.55
2019-05-06T03:05:38.062Z,78.96
2019-05-06T03:06:38.320Z,76.70
2019-05-06T03:07:37.841Z,68.96
2019-05-06T03:08:39.061Z,77.18
2019-05-06T03:09:37.805Z,80.08
2019-05-06T03:10:37.945Z,78.47
2019-05-06T03:11:38.135Z,83.63
2019-05-06T03:12:38.323Z,82.34
2019-05-06T03:13:38.507Z,79.28
2019-05-06T03:14:38.658Z,76.54
2019-05-06T03:15:39.808Z,67.84
2019-05-06T03:16:39.047Z,75.73
2019-05-06T03:17:39.237Z,64.29
2019-05-06T03:18:39.385Z,81.86
2019-05-06T03:19:39.530Z,61.39
2019-05-06T03:20:39.663Z,72.83
2019-05-06T03:21:39.823Z,76.38
2019-05-06T03:22:43.276Z,81.86
2019-05-06T03:23:43.322Z,80.73
2019-05-06T03:24:43.360Z,77.99
2019-05-06T03:25:43.728Z,83.47
2019-05-06T03:26:43.780Z,81.53
2019-05-06T03:27:43.889Z,81.86
2019-05-06T03:28:44.107Z,81.21
2019-05-06T03:29:44.179Z,81.69
2019-05-06T03:30:45.773Z,80.57
2019-05-06T03:31:46.250Z,81.86
2019-05-06T03:33:18.733Z,77.02
2019-05-06T03:33:58.510Z,79.12
2019-05-06T03:35:01.132Z,83.79
2019-05-06T03:36:00.715Z,80.73
2019-05-06T03:36:48.618Z,79.92
2019-05-06T03:37:44.120Z,78.79
2019-05-06T03:38:43.831Z,79.60
2019-05-06T03:39:43.508Z,78.79
2019-05-06T03:40:45.915Z,81.53
2019-05-06T03:41:44.299Z,81.69
2019-05-06T03:42:43.415Z,81.53
2019-05-06T03:43:43.814Z,79.60
2019-05-06T03:44:43.736Z,81.21
2019-05-06T03:45:43.913Z,79.92
2019-05-06T03:46:44.086Z,77.50
2019-05-06T03:47:44.260Z,82.66
2019-05-06T03:48:44.621Z,79.76
2019-05-06T03:49:44.547Z,81.86
2019-05-06T03:50:44.700Z,82.98
2019-05-06T03:51:44.875Z,80.08
2019-05-06T03:52:45.058Z,77.02
2019-05-06T03:53:46.067Z,78.15
2019-05-06T03:54:45.463Z,80.57
2019-05-06T03:55:47.192Z,82.02
2019-05-06T03:56:46.812Z,80.73
2019-05-06T03:57:46.950Z,81.21
2019-05-06T03:58:47.059Z,79.92
2019-05-06T03:59:46.337Z,78.47
2019-05-06T04:00:46.506Z,80.08
2019-05-06T04:01:46.672Z,80.57
2019-05-06T04:02:46.849Z,78.47
2019-05-06T04:03:52.273Z,77.02
2019-05-06T04:04:49.284Z,81.69
2019-05-06T04:05:47.398Z,78.96
2019-05-06T04:06:47.547Z,73.80
2019-05-06T04:07:47.705Z,77.99
2019-05-06T04:08:47.829Z,82.98
2019-05-06T04:09:48.007Z,82.82
2019-05-06T04:10:48.575Z,78.96
2019-05-06T04:11:48.356Z,80.08
2019-05-06T04:12:48.522Z,78.63
2019-05-06T04:13:48.678Z,81.21
2019-05-06T04:14:49.568Z,83.14
2019-05-06T04:15:48.973Z,82.50
2019-05-06T04:16:49.129Z,80.08
2019-05-06T04:17:49.303Z,80.89
2019-05-06T04:18:49.471Z,80.73
2019-05-06T04:19:49.616Z,81.53
2019-05-06T04:20:52.927Z,79.60
2019-05-06T04:21:53.179Z,82.82
2019-05-06T04:22:53.167Z,83.47
2019-05-06T04:23:53.490Z,82.34
2019-05-06T04:24:53.858Z,83.47
2019-05-06T04:25:52.683Z,83.79
2019-05-06T04:26:53.442Z,95.55
2019-05-06T04:27:53.765Z,87.33
2019-05-06T04:28:53.410Z,81.69
2019-05-06T04:29:54.330Z,79.60
2019-05-06T04:30:54.831Z,84.43
2019-05-06T04:31:53.940Z,80.24
2019-05-06T04:32:53.314Z,77.67
2019-05-06T04:34:08.481Z,80.57
2019-05-06T04:34:54.218Z,79.92
2019-05-06T04:35:54.249Z,82.18
2019-05-06T04:36:53.702Z,81.37
2019-05-06T04:37:53.825Z,81.37
2019-05-06T04:38:54.278Z,82.02
2019-05-06T04:39:54.046Z,81.69
2019-05-06T04:40:54.089Z,82.66
2019-05-06T04:41:54.444Z,82.98
2019-05-06T04:42:53.577Z,79.76
2019-05-06T04:43:53.762Z,78.63
2019-05-06T04:44:53.936Z,66.39
2019-05-06T04:45:54.381Z,80.89
2019-05-06T04:46:54.664Z,81.53
2019-05-06T04:47:55.516Z,82.34
2019-05-06T04:48:55.085Z,81.86
2019-05-06T04:49:54.866Z,78.31
2019-05-06T04:50:54.994Z,81.05
2019-05-06T04:51:55.168Z,83.63
2019-05-06T04:52:55.322Z,79.44
2019-05-06T04:53:55.469Z,79.12
2019-05-06T04:54:55.604Z,82.50
2019-05-06T04:55:55.762Z,76.70
2019-05-06T04:56:55.920Z,82.50
2019-05-06T04:57:56.051Z,90.72
2019-05-06T04:58:56.189Z,81.21
2019-05-06T04:59:56.332Z,80.24
2019-05-06T05:00:56.490Z,80.73
2019-05-06T05:01:56.659Z,75.89
2019-05-06T05:02:56.795Z,80.41
2019-05-06T05:03:56.925Z,77.67
2019-05-06T05:04:57.071Z,82.34
2019-05-06T05:05:57.222Z,87.01
2019-05-06T05:06:57.426Z,78.31
2019-05-06T05:07:57.594Z,83.95
2019-05-06T05:08:57.760Z,82.34
2019-05-06T05:09:57.911Z,75.41
2019-05-06T05:10:58.065Z,78.31
2019-05-06T05:11:58.246Z,80.24
2019-05-06T05:12:58.420Z,81.21
2019-05-06T05:13:58.590Z,82.98
2019-05-06T05:14:58.758Z,78.79
2019-05-06T05:15:58.925Z,81.37
2019-05-06T05:16:59.085Z,79.12
2019-05-06T05:17:59.254Z,82.02
2019-05-06T05:18:59.416Z,79.92
2019-05-06T05:20:02.023Z,79.76
2019-05-06T05:20:59.711Z,81.05
2019-05-06T05:21:59.829Z,81.53
2019-05-06T05:22:59.990Z,79.76
2019-05-06T05:24:01.989Z,82.50
2019-05-06T05:25:03.283Z,81.53
2019-05-06T05:26:02.722Z,76.22
2019-05-06T05:27:03.026Z,77.99
2019-05-06T05:28:02.211Z,79.92
2019-05-06T05:29:02.862Z,82.18
2019-05-06T05:30:02.318Z,88.30
2019-05-06T05:31:03.033Z,79.12
2019-05-06T05:32:02.198Z,82.98
2019-05-06T05:33:02.903Z,79.76
2019-05-06T05:34:02.294Z,78.47
2019-05-06T05:35:03.350Z,83.14
2019-05-06T05:36:02.599Z,79.44
2019-05-06T05:37:03.573Z,80.24
2019-05-06T05:38:03.113Z,79.92
2019-05-06T05:39:04.191Z,80.24
2019-05-06T05:40:03.405Z,82.50
2019-05-06T05:41:03.559Z,80.89
2019-05-06T05:42:03.701Z,78.96
2019-05-06T05:43:03.843Z,78.96
2019-05-06T05:44:03.978Z,80.24
2019-05-06T05:45:04.123Z,82.02
2019-05-06T05:46:04.286Z,81.05
2019-05-06T05:47:04.423Z,81.37
2019-05-06T05:48:04.542Z,80.73
2019-05-06T05:49:04.686Z,80.89
2019-05-06T05:50:04.829Z,79.44
2019-05-06T05:51:04.989Z,79.44
2019-05-06T05:52:06.123Z,79.44
2019-05-06T05:53:05.349Z,78.63
2019-05-06T05:54:05.492Z,81.05
2019-05-06T05:55:05.642Z,79.60
2019-05-06T05:56:05.810Z,80.57
2019-05-06T05:57:05.982Z,81.86
2019-05-06T05:58:07.075Z,83.79
2019-05-06T05:59:06.297Z,78.63
2019-05-06T06:00:07.425Z,81.69
2019-05-06T06:01:06.573Z,84.43
2019-05-06T06:02:06.725Z,79.60
2019-05-06T06:03:07.446Z,83.95
2019-05-06T06:04:07.999Z,81.21
2019-05-06T06:05:07.133Z,93.46
2019-05-06T06:06:07.310Z,81.05
2019-05-06T06:07:07.475Z,80.89
2019-05-06T06:08:07.607Z,79.44
2019-05-06T06:09:07.744Z,79.60
2019-05-06T06:10:07.931Z,84.76
2019-05-06T06:11:08.106Z,81.69
2019-05-06T06:12:08.289Z,80.57
2019-05-06T06:13:08.438Z,77.67
2019-05-06T06:14:08.584Z,79.92
2019-05-06T06:15:08.733Z,78.79
2019-05-06T06:16:08.874Z,78.47
2019-05-06T06:17:09.049Z,79.76
2019-05-06T06:18:09.183Z,77.99
2019-05-06T06:19:09.307Z,84.27
2019-05-06T06:20:09.451Z,81.86
2019-05-06T06:21:18.809Z,79.76
2019-05-06T06:22:11.832Z,78.63
2019-05-06T06:23:10.876Z,76.54
2019-05-06T06:24:09.995Z,81.05
2019-05-06T06:25:13.997Z,82.82
2019-05-06T06:26:12.136Z,81.05
2019-05-06T06:27:12.451Z,76.05
2019-05-06T06:28:11.948Z,79.76
2019-05-06T06:29:12.489Z,76.86
2019-05-06T06:30:12.816Z,80.41
2019-05-06T06:31:12.041Z,78.79
2019-05-06T06:32:13.784Z,79.28
2019-05-06T06:33:12.959Z,78.47
2019-05-06T06:34:13.003Z,80.24
2019-05-06T06:35:14.714Z,80.57
2019-05-06T06:36:13.047Z,74.93
2019-05-06T06:37:13.247Z,80.24
2019-05-06T06:38:13.459Z,79.92
2019-05-06T06:39:13.089Z,81.86
2019-05-06T06:40:13.577Z,79.92
2019-05-06T06:41:12.823Z,79.44
2019-05-06T06:42:12.988Z,79.76
2019-05-06T06:43:13.123Z,80.41
2019-05-06T06:44:13.353Z,79.92
2019-05-06T06:45:14.355Z,80.08
2019-05-06T06:46:13.589Z,79.60
2019-05-06T06:47:13.704Z,79.12
2019-05-06T06:48:13.942Z,78.63
2019-05-06T06:49:14.231Z,78.47
2019-05-06T06:50:14.336Z,80.08
2019-05-06T06:51:14.475Z,78.96
2019-05-06T06:52:15.026Z,83.47
2019-05-06T06:53:15.749Z,80.24
2019-05-06T06:54:15.996Z,82.66
2019-05-06T06:55:15.096Z,78.15
2019-05-06T06:56:15.221Z,80.24
2019-05-06T06:57:15.479Z,78.15
2019-05-06T06:58:15.579Z,79.76
2019-05-06T06:59:15.865Z,81.37
2019-05-06T07:00:16.015Z,78.63
2019-05-06T07:01:16.166Z,79.76
2019-05-06T07:02:16.326Z,79.28
2019-05-06T07:03:16.501Z,78.47
2019-05-06T07:04:16.621Z,80.08
2019-05-06T07:05:25.507Z,81.53
2019-05-06T07:06:18.982Z,78.15
2019-05-06T07:07:17.182Z,80.57
2019-05-06T07:08:31.381Z,80.89
2019-05-06T07:09:18.457Z,76.86
2019-05-06T07:10:17.696Z,78.79
2019-05-06T07:11:18.086Z,76.05
2019-05-06T07:12:18.036Z,76.38
2019-05-06T07:13:18.099Z,78.31
2019-05-06T07:14:18.253Z,77.67
2019-05-06T07:15:18.390Z,81.53
2019-05-06T07:16:20.710Z,76.70
2019-05-06T07:17:19.581Z,77.99
2019-05-06T07:18:18.828Z,77.50
2019-05-06T07:19:18.982Z,80.73
2019-05-06T07:20:19.103Z,81.21
2019-05-06T07:21:19.289Z,81.37
2019-05-06T07:22:19.435Z,78.63
2019-05-06T07:23:19.611Z,76.70
2019-05-06T07:24:22.672Z,80.89
2019-05-06T07:25:22.116Z,79.92
2019-05-06T07:26:20.255Z,79.12
2019-05-06T07:27:22.426Z,82.18
2019-05-06T07:28:22.807Z,81.21
2019-05-06T07:29:25.792Z,80.57
2019-05-06T07:30:23.079Z,76.86
2019-05-06T07:31:26.382Z,79.92
2019-05-06T07:32:23.240Z,78.15
2019-05-06T07:33:23.068Z,77.18
2019-05-06T07:34:22.959Z,77.99
2019-05-06T07:35:37.428Z,79.76
2019-05-06T07:36:24.045Z,79.44
2019-05-06T07:37:22.303Z,79.92
2019-05-06T07:38:23.536Z,78.47
2019-05-06T07:39:24.230Z,82.34
2019-05-06T07:40:24.575Z,82.66
2019-05-06T07:41:23.565Z,80.41
2019-05-06T07:42:24.284Z,78.96
2019-05-06T07:43:23.415Z,75.57
2019-05-06T07:44:23.549Z,83.79
2019-05-06T07:45:23.710Z,79.60
2019-05-06T07:46:23.885Z,79.92
2019-05-06T07:47:24.109Z,78.96
2019-05-06T07:48:24.266Z,81.37
2019-05-06T07:49:24.428Z,81.21
2019-05-06T07:50:24.618Z,82.18
2019-05-06T07:51:24.749Z,77.99
2019-05-06T07:52:24.887Z,81.05
2019-05-06T07:53:25.045Z,79.92
2019-05-06T07:54:25.184Z,79.60
2019-05-06T07:55:25.355Z,77.50
2019-05-06T07:56:25.515Z,83.14
2019-05-06T07:57:26.573Z,90.40
2019-05-06T07:58:25.809Z,74.28
2019-05-06T07:59:25.962Z,79.60
2019-05-06T08:00:26.587Z,77.02
2019-05-06T08:01:26.357Z,77.83
2019-05-06T08:02:26.514Z,75.73
2019-05-06T08:03:26.669Z,79.92
2019-05-06T08:04:26.845Z,76.54
2019-05-06T08:05:27.042Z,75.89
2019-05-06T08:06:27.207Z,78.15
2019-05-06T08:07:27.357Z,76.38
2019-05-06T08:08:27.501Z,78.79
2019-05-06T08:09:27.697Z,79.28
2019-05-06T08:10:27.885Z,78.15
2019-05-06T08:11:28.074Z,78.47
2019-05-06T08:12:28.242Z,79.44
2019-05-06T08:13:28.396Z,78.63
2019-05-06T08:14:28.558Z,76.70
2019-05-06T08:15:28.717Z,79.12
2019-05-06T08:16:28.893Z,78.15
2019-05-06T08:17:29.041Z,78.63
2019-05-06T08:18:29.184Z,79.60
2019-05-06T08:19:29.359Z,79.92
2019-05-06T08:20:29.498Z,82.18
2019-05-06T08:21:29.650Z,79.28
2019-05-06T08:22:29.820Z,77.67
2019-05-06T08:23:32.400Z,79.12
2019-05-06T08:24:30.150Z,77.67
2019-05-06T08:25:32.836Z,78.31
2019-05-06T08:26:32.294Z,80.57
2019-05-06T08:27:32.870Z,77.34
2019-05-06T08:28:38.647Z,76.22
2019-05-06T08:29:33.219Z,80.08
2019-05-06T08:30:32.435Z,74.93
2019-05-06T08:31:32.775Z,74.93
2019-05-06T08:32:32.547Z,77.83
2019-05-06T08:33:32.710Z,77.83
2019-05-06T08:34:34.261Z,78.15
2019-05-06T08:35:33.186Z,76.54
2019-05-06T08:36:33.202Z,75.73
2019-05-06T08:37:32.431Z,75.57
2019-05-06T08:38:32.744Z,76.54
2019-05-06T08:39:33.762Z,80.41
2019-05-06T08:40:33.599Z,78.79
2019-05-06T08:41:33.362Z,76.05
2019-05-06T08:42:33.310Z,78.96
2019-05-06T08:43:33.514Z,82.02
2019-05-06T08:44:33.688Z,77.50
2019-05-06T08:45:33.817Z,75.73
2019-05-06T08:46:33.968Z,76.05
2019-05-06T08:47:34.110Z,75.57
2019-05-06T08:48:34.261Z,83.47
2019-05-06T08:49:34.602Z,75.41
2019-05-06T08:50:34.598Z,77.18
2019-05-06T08:51:34.730Z,78.63
2019-05-06T08:52:34.875Z,77.18
2019-05-06T08:53:35.603Z,73.80
2019-05-06T08:54:35.267Z,77.34
2019-05-06T08:55:35.400Z,77.50
2019-05-06T08:56:35.542Z,78.31
2019-05-06T08:57:35.695Z,77.99
2019-05-06T08:58:35.854Z,78.63
2019-05-06T08:59:36.084Z,79.28
2019-05-06T09:00:36.262Z,82.34
2019-05-06T09:01:36.429Z,79.28
2019-05-06T09:02:36.572Z,80.08
2019-05-06T09:03:36.736Z,75.89
2019-05-06T09:04:36.924Z,78.47
2019-05-06T09:05:37.087Z,78.31
2019-05-06T09:06:37.264Z,78.96
2019-05-06T09:07:37.405Z,78.96
2019-05-06T09:08:37.568Z,83.63
2019-05-06T09:09:37.735Z,79.28
2019-05-06T09:10:37.871Z,77.83
2019-05-06T09:11:39.026Z,80.41
2019-05-06T09:12:38.263Z,81.69
2019-05-06T09:13:38.412Z,78.96
2019-05-06T09:14:38.569Z,80.08
2019-05-06T09:15:38.725Z,75.25
2019-05-06T09:16:38.869Z,80.08
2019-05-06T09:17:39.032Z,75.73
2019-05-06T09:18:39.201Z,84.59
2019-05-06T09:19:39.388Z,77.18
2019-05-06T09:20:39.523Z,77.99
2019-05-06T09:21:43.378Z,81.05
2019-05-06T09:22:42.870Z,77.99
2019-05-06T09:23:42.216Z,83.14
2019-05-06T09:24:42.470Z,78.31
2019-05-06T09:25:42.323Z,82.34
2019-05-06T09:26:42.945Z,77.50
2019-05-06T09:27:42.206Z,77.83
2019-05-06T09:28:42.662Z,76.05
2019-05-06T09:29:42.938Z,81.37
2019-05-06T09:30:43.169Z,74.28
2019-05-06T09:31:42.710Z,81.21
2019-05-06T09:32:42.981Z,82.50
2019-05-06T09:33:42.722Z,76.54
2019-05-06T09:34:43.038Z,80.57
2019-05-06T09:35:43.045Z,75.25
2019-05-06T09:36:51.509Z,78.31
2019-05-06T09:37:44.348Z,73.64
2019-05-06T09:38:42.625Z,77.02
2019-05-06T09:39:43.224Z,74.44
2019-05-06T09:40:43.963Z,76.05
2019-05-06T09:41:47.419Z,76.22
2019-05-06T09:42:45.336Z,78.63
2019-05-06T09:43:43.610Z,75.57
2019-05-06T09:44:43.751Z,77.02
2019-05-06T09:45:43.912Z,77.34
2019-05-06T09:46:44.044Z,77.67
2019-05-06T09:47:44.224Z,75.09
2019-05-06T09:48:44.380Z,74.93
2019-05-06T09:49:44.536Z,76.54
2019-05-06T09:50:46.152Z,78.79
2019-05-06T09:51:45.895Z,78.63
2019-05-06T09:52:45.175Z,80.57
2019-05-06T09:53:45.340Z,82.18
2019-05-06T09:54:46.115Z,75.09
2019-05-06T09:55:45.624Z,81.86
2019-05-06T09:56:45.811Z,79.12
2019-05-06T09:57:46.011Z,80.57
2019-05-06T09:58:47.109Z,75.89
2019-05-06T09:59:47.104Z,77.50
2019-05-06T10:00:46.610Z,76.86
2019-05-06T10:01:46.770Z,79.12
2019-05-06T10:02:49.476Z,74.93
2019-05-06T10:03:48.137Z,80.08
2019-05-06T10:04:47.274Z,75.25
2019-05-06T10:05:47.429Z,81.21
2019-05-06T10:06:56.355Z,76.05
2019-05-06T10:07:49.718Z,76.54
2019-05-06T10:08:47.943Z,75.73
2019-05-06T10:09:48.142Z,74.60
2019-05-06T10:10:56.933Z,77.67
2019-05-06T10:11:52.425Z,74.93
2019-05-06T10:12:48.647Z,76.70
2019-05-06T10:13:48.812Z,76.54
2019-05-06T10:14:48.959Z,73.32
2019-05-06T10:15:49.108Z,84.59
2019-05-06T10:16:52.224Z,77.50
2019-05-06T10:17:52.036Z,77.83
2019-05-06T10:18:49.613Z,78.96
2019-05-06T10:19:49.766Z,72.99
2019-05-06T10:20:49.949Z,78.15
2019-05-06T10:21:50.117Z,76.38
2019-05-06T10:22:52.367Z,77.67
2019-05-06T10:23:52.858Z,74.93
2019-05-06T10:24:52.271Z,78.79
2019-05-06T10:25:52.299Z,78.63
2019-05-06T10:26:52.404Z,77.02
2019-05-06T10:27:52.496Z,72.99
2019-05-06T10:28:52.526Z,90.72
2019-05-06T10:29:52.186Z,76.38
2019-05-06T10:30:52.724Z,76.54
2019-05-06T10:31:52.452Z,77.34
2019-05-06T10:32:53.619Z,78.15
2019-05-06T10:33:53.134Z,77.18
2019-05-06T10:34:53.399Z,76.38
2019-05-06T10:35:53.007Z,78.63
2019-05-06T10:36:53.746Z,78.31
2019-05-06T10:37:52.906Z,77.02
2019-05-06T10:38:53.621Z,76.05
2019-05-06T10:39:53.623Z,78.63
2019-05-06T10:41:02.887Z,79.28
2019-05-06T10:41:55.555Z,78.63
2019-05-06T10:42:53.688Z,77.02
2019-05-06T10:43:53.856Z,78.31
2019-05-06T10:44:54.041Z,76.05
2019-05-06T10:45:54.210Z,77.34
2019-05-06T10:46:54.447Z,78.31
2019-05-06T10:47:54.619Z,77.34
2019-05-06T10:48:54.818Z,74.44
2019-05-06T10:49:54.993Z,81.21
2019-05-06T10:50:55.137Z,76.22
2019-05-06T10:51:55.356Z,76.05
2019-05-06T10:52:55.515Z,75.25
2019-05-06T10:53:55.680Z,76.22
2019-05-06T10:54:55.856Z,73.15
2019-05-06T10:55:56.040Z,79.60
2019-05-06T10:56:57.373Z,78.31
2019-05-06T10:57:57.364Z,77.50
2019-05-06T10:58:56.499Z,78.31
2019-05-06T10:59:56.689Z,80.73
2019-05-06T11:00:56.852Z,77.02
2019-05-06T11:01:57.026Z,75.57
2019-05-06T11:02:57.174Z,82.66
2019-05-06T11:03:57.344Z,76.05
2019-05-06T11:04:58.154Z,80.08
2019-05-06T11:05:57.643Z,77.50
2019-05-06T11:06:57.795Z,81.37
2019-05-06T11:07:57.897Z,79.12
2019-05-06T11:08:58.022Z,79.92
2019-05-06T11:09:58.159Z,80.41
2019-05-06T11:11:12.454Z,74.44
2019-05-06T11:12:00.450Z,73.32
2019-05-06T11:12:58.685Z,83.47
2019-05-06T11:13:58.847Z,80.08
2019-05-06T11:14:59.018Z,75.41
2019-05-06T11:16:00.152Z,81.05
2019-05-06T11:16:59.425Z,80.24
2019-05-06T11:18:04.085Z,79.28
2019-05-06T11:19:02.091Z,74.60
2019-05-06T11:19:59.881Z,75.09
2019-05-06T11:21:00.095Z,76.86
2019-05-06T11:22:03.371Z,75.57
2019-05-06T11:23:02.147Z,80.08
2019-05-06T11:24:00.641Z,76.70
2019-05-06T11:25:03.064Z,86.04
2019-05-06T11:26:03.071Z,77.99
2019-05-06T11:27:03.508Z,80.57
2019-05-06T11:28:02.960Z,78.31
2019-05-06T11:29:05.160Z,74.77
2019-05-06T11:30:02.786Z,75.25
2019-05-06T11:31:02.628Z,76.54
2019-05-06T11:32:03.089Z,75.73
2019-05-06T11:33:04.567Z,75.25
2019-05-06T11:34:03.445Z,82.82
2019-05-06T11:35:03.911Z,80.57
2019-05-06T11:36:03.738Z,78.47
2019-05-06T11:37:02.916Z,77.18
2019-05-06T11:38:03.081Z,76.86
2019-05-06T11:39:03.245Z,79.76
2019-05-06T11:40:03.380Z,78.79
2019-05-06T11:41:03.537Z,75.09
2019-05-06T11:42:23.878Z,76.22
2019-05-06T11:43:05.898Z,75.09
2019-05-06T11:44:04.125Z,77.99
2019-05-06T11:45:04.239Z,79.60
2019-05-06T11:46:04.398Z,77.34
2019-05-06T11:47:04.582Z,79.76
2019-05-06T11:48:04.706Z,76.70
2019-05-06T11:49:04.854Z,79.60
2019-05-06T11:50:05.221Z,76.54
2019-05-06T11:51:06.170Z,77.67
2019-05-06T11:52:05.296Z,78.63
2019-05-06T11:53:05.436Z,77.67
2019-05-06T11:54:16.328Z,78.96
2019-05-06T11:55:07.825Z,78.47
2019-05-06T11:56:06.149Z,75.25
2019-05-06T11:57:06.173Z,77.02
2019-05-06T11:58:07.136Z,78.31
2019-05-06T11:59:06.511Z,82.34
2019-05-06T12:00:06.655Z,77.83
2019-05-06T12:01:06.822Z,76.05
2019-05-06T12:02:06.965Z,79.44
2019-05-06T12:03:07.088Z,75.41
2019-05-06T12:04:08.342Z,76.05
2019-05-06T12:05:08.144Z,87.50
2019-05-06T12:06:07.782Z,78.47
2019-05-06T12:07:11.070Z,75.25
2019-05-06T12:08:13.696Z,73.96
2019-05-06T12:09:15.722Z,77.02
2019-05-06T12:10:09.581Z,76.70
2019-05-06T12:11:08.815Z,79.76
2019-05-06T12:12:08.952Z,76.70
2019-05-06T12:13:09.104Z,80.89
2019-05-06T12:14:12.317Z,77.67
2019-05-06T12:15:09.454Z,86.37
2019-05-06T12:16:09.589Z,76.70
2019-05-06T12:17:09.756Z,75.73
2019-05-06T12:18:09.899Z,79.12
2019-05-06T12:19:12.992Z,78.47
2019-05-06T12:20:10.268Z,79.60
2019-05-06T12:21:15.446Z,76.86
2019-05-06T12:22:12.777Z,78.79
2019-05-06T12:23:15.278Z,76.22
2019-05-06T12:24:12.227Z,81.21
2019-05-06T12:25:15.323Z,80.57
2019-05-06T12:26:13.220Z,83.31
2019-05-06T12:27:12.704Z,77.18
2019-05-06T12:28:12.619Z,76.86
2019-05-06T12:29:12.712Z,76.38
2019-05-06T12:30:12.847Z,76.05
2019-05-06T12:31:12.697Z,76.38
2019-05-06T12:32:13.171Z,77.67
2019-05-06T12:33:13.189Z,77.67
2019-05-06T12:34:14.663Z,75.73
2019-05-06T12:35:13.669Z,79.12
2019-05-06T12:36:13.645Z,77.50
2019-05-06T12:37:13.001Z,78.63
2019-05-06T12:38:26.684Z,77.50
2019-05-06T12:39:17.349Z,77.02
2019-05-06T12:40:14.520Z,77.67
2019-05-06T12:41:13.963Z,78.31
2019-05-06T12:42:14.821Z,81.05
2019-05-06T12:43:13.932Z,76.86
2019-05-06T12:44:14.117Z,77.83
2019-05-06T12:45:15.155Z,78.47
2019-05-06T12:46:14.395Z,77.99
2019-05-06T12:47:14.570Z,80.08
2019-05-06T12:48:14.771Z,79.92
2019-05-06T12:49:14.940Z,78.79
2019-05-06T12:50:15.076Z,78.63
2019-05-06T12:51:15.213Z,78.79
2019-05-06T12:52:15.346Z,81.86
2019-05-06T12:53:15.509Z,75.89
2019-05-06T12:54:15.667Z,81.69